Time;durP1;ratioP1;P1;durP2;ratioP2;P2;SDS_P1;SDS_P2;PMS_P1;PMS_P2;Temp;Humidity;BMP_temperature;BMP_pressure;BME280_temperature;BME280_humidity;BME280_pressure;Samples;Min_cycle;Max_cycle;Signal;HPM_P1;HPM_P2
2021/05/01 00:02:17;;;;;;;;;;;7.90;94.70;;;;;;4989297;28;19917;-53
2021/05/01 00:04:42;;;;;;;;;;;7.80;95.00;;;;;;4985509;28;19926;-49
2021/05/01 00:07:08;;;;;;;;;;;7.80;94.90;;;;;;4977139;28;19944;-51
2021/05/01 00:09:34;;;;;;;;;;;7.80;94.70;;;;;;4981472;28;19971;-51
2021/05/01 00:11:59;;;;;;;;;;;7.80;94.30;;;;;;4989444;28;19961;-50
2021/05/01 00:14:26;;;;;;;;;;;7.70;94.10;;;;;;4989818;28;20312;-51
2021/05/01 00:16:53;;;;;;;;;;;7.70;94.00;;;;;;5030115;28;19926;-50
2021/05/01 00:19:19;;;;;;;;;;;7.70;94.20;;;;;;4982333;28;19918;-50
2021/05/01 00:21:45;;;;;;;;;;;7.60;94.40;;;;;;4998201;28;20004;-51
2021/05/01 00:24:10;;;;;;;;;;;7.60;94.50;;;;;;5024413;28;20342;-50
2021/05/01 00:26:36;;;;;;;;;;;7.60;94.70;;;;;;4988228;28;19922;-51
2021/05/01 00:29:02;;;;;;;;;;;7.60;94.60;;;;;;4974730;28;20293;-49
2021/05/01 00:31:29;;;;;;;;;;;7.60;94.50;;;;;;4990068;28;19926;-49
2021/05/01 00:33:54;;;;;;;;;;;7.60;94.70;;;;;;4992607;28;19921;-50
2021/05/01 00:36:20;;;;;;;;;;;7.60;94.50;;;;;;4993400;28;19986;-51
2021/05/01 00:38:46;;;;;;;;;;;7.60;94.40;;;;;;4992601;28;20026;-48
2021/05/01 00:41:11;;;;;;;;;;;7.70;94.70;;;;;;4992999;28;19917;-49
2021/05/01 00:43:41;;;;;;;;;;;7.70;95.00;;;;;;4992912;28;19918;-51
2021/05/01 00:46:07;;;;;;;;;;;7.60;94.90;;;;;;4991341;28;19951;-53
2021/05/01 00:48:33;;;;;;;;;;;7.60;95.00;;;;;;4991553;28;19925;-52
2021/05/01 00:50:59;;;;;;;;;;;7.70;94.30;;;;;;4977426;28;19917;-50
2021/05/01 00:53:25;;;;;;;;;;;7.70;94.30;;;;;;4992766;28;19918;-52
2021/05/01 00:55:50;;;;;;;;;;;7.70;94.40;;;;;;4992455;28;19975;-53
2021/05/01 00:58:16;;;;;;;;;;;7.70;94.70;;;;;;4992052;28;20163;-50
2021/05/01 01:01:27;;;;;;;;;;;7.70;94.90;;;;;;4992251;28;19939;-49
2021/05/01 01:03:28;;;;;;;;;;;7.70;95.00;;;;;;4973043;28;20385;-49
2021/05/01 01:05:53;;;;;;;;;;;7.80;94.40;;;;;;4991179;28;19925;-52
2021/05/01 01:08:19;;;;;;;;;;;7.80;94.30;;;;;;5001331;28;19998;-52
2021/05/01 01:10:49;;;;;;;;;;;7.80;94.40;;;;;;5021739;28;19922;-49
2021/05/01 01:13:16;;;;;;;;;;;7.80;94.40;;;;;;4981921;28;19922;-50
2021/05/01 01:15:42;;;;;;;;;;;7.80;94.50;;;;;;4970958;28;19921;-52
2021/05/01 01:18:08;;;;;;;;;;;7.80;94.60;;;;;;4991837;28;19933;-50
2021/05/01 01:20:38;;;;;;;;;;;7.80;94.60;;;;;;4993187;28;19921;-49
2021/05/01 01:23:03;;;;;;;;;;;7.80;94.50;;;;;;4991706;28;20005;-52
2021/05/01 01:25:29;;;;;;;;;;;7.90;94.50;;;;;;4976231;28;19961;-53
2021/05/01 01:27:55;;;;;;;;;;;7.90;94.90;;;;;;4978637;28;19929;-52
2021/05/01 01:30:32;;;;;;;;;;;7.90;95.00;;;;;;4982502;28;19987;-52
2021/05/01 01:32:59;;;;;;;;;;;7.90;94.90;;;;;;4978749;28;20365;-53
2021/05/01 01:35:25;;;;;;;;;;;7.80;94.80;;;;;;4961732;28;20448;-49
2021/05/01 01:37:52;;;;;;;;;;;7.80;94.60;;;;;;5046368;28;19921;-49
2021/05/01 01:40:19;;;;;;;;;;;7.80;94.60;;;;;;4990414;28;20313;-53
2021/05/01 01:42:44;;;;;;;;;;;7.80;94.60;;;;;;5011077;28;19916;-52
2021/05/01 01:45:11;;;;;;;;;;;7.70;94.80;;;;;;5032301;28;19924;-52
2021/05/01 01:47:37;;;;;;;;;;;7.70;94.90;;;;;;4976929;28;19932;-49
2021/05/01 01:50:04;;;;;;;;;;;7.70;94.90;;;;;;4991786;28;20437;-53
2021/05/01 01:52:30;;;;;;;;;;;7.70;94.80;;;;;;4995983;28;20332;-49
2021/05/01 01:54:55;;;;;;;;;;;7.70;94.50;;;;;;4990133;28;19917;-53
2021/05/01 01:57:21;;;;;;;;;;;7.70;94.40;;;;;;4991305;28;19926;-50
2021/05/01 01:59:47;;;;;;;;;;;7.70;94.50;;;;;;4983047;28;19957;-51
2021/05/01 02:02:12;;;;;;;;;;;7.70;94.50;;;;;;4993910;28;19939;-54
2021/05/01 02:04:38;;;;;;;;;;;7.60;94.50;;;;;;5018227;28;20009;-52
2021/05/01 02:07:04;;;;;;;;;;;7.60;94.60;;;;;;4990485;28;19967;-53
2021/05/01 02:09:29;;;;;;;;;;;7.60;94.60;;;;;;4979218;28;19924;-52
2021/05/01 02:11:55;;;;;;;;;;;7.60;94.70;;;;;;4986612;28;19991;-52
2021/05/01 02:14:21;;;;;;;;;;;7.50;94.80;;;;;;4982205;28;19921;-50
2021/05/01 02:16:49;;;;;;;;;;;7.50;94.90;;;;;;4985219;28;19925;-52
2021/05/01 02:19:15;;;;;;;;;;;7.50;95.10;;;;;;4991079;28;19922;-50
2021/05/01 02:21:41;;;;;;;;;;;7.50;95.10;;;;;;5046271;28;20355;-49
2021/05/01 02:24:07;;;;;;;;;;;7.40;95.00;;;;;;4984978;28;19918;-53
2021/05/01 02:26:37;;;;;;;;;;;7.40;94.80;;;;;;4989952;28;19928;-53
2021/05/01 02:29:03;;;;;;;;;;;7.40;94.80;;;;;;5037491;28;19966;-53
2021/05/01 02:31:29;;;;;;;;;;;7.40;94.90;;;;;;4991626;28;19918;-53
2021/05/01 02:33:55;;;;;;;;;;;7.40;94.70;;;;;;5004103;28;19922;-51
2021/05/01 02:36:22;;;;;;;;;;;7.40;94.70;;;;;;4974214;28;19929;-50
2021/05/01 02:38:51;;;;;;;;;;;7.40;94.70;;;;;;4994827;28;20389;-50
2021/05/01 02:41:17;;;;;;;;;;;7.40;94.80;;;;;;4980015;28;19957;-50
2021/05/01 02:43:43;;;;;;;;;;;7.40;94.90;;;;;;4972986;28;19918;-50
2021/05/01 02:46:09;;;;;;;;;;;7.40;94.80;;;;;;4984211;28;19918;-50
2021/05/01 02:48:34;;;;;;;;;;;7.40;94.80;;;;;;5010406;28;19925;-51
2021/05/01 02:51:00;;;;;;;;;;;7.50;94.80;;;;;;4984361;28;19940;-50
2021/05/01 02:53:26;;;;;;;;;;;7.50;95.00;;;;;;5029079;28;20521;-49
2021/05/01 02:55:52;;;;;;;;;;;7.50;94.90;;;;;;5071680;28;20016;-49
2021/05/01 02:58:18;;;;;;;;;;;7.50;95.00;;;;;;4998965;28;19926;-50
2021/05/01 03:00:43;;;;;;;;;;;7.50;95.10;;;;;;4991248;28;19993;-52
2021/05/01 03:03:09;;;;;;;;;;;7.40;95.00;;;;;;4990930;28;19922;-49
2021/05/01 03:05:35;;;;;;;;;;;7.50;95.00;;;;;;4994743;28;19922;-49
2021/05/01 03:08:01;;;;;;;;;;;7.50;94.90;;;;;;4994978;28;19918;-51
2021/05/01 03:10:30;;;;;;;;;;;7.50;94.70;;;;;;5004421;28;20188;-51
2021/05/01 03:12:57;;;;;;;;;;;7.50;94.90;;;;;;5009510;28;19921;-51
2021/05/01 03:15:25;;;;;;;;;;;7.50;95.20;;;;;;4995958;28;19918;-51
2021/05/01 03:17:53;;;;;;;;;;;7.50;95.30;;;;;;4996544;28;19922;-52
2021/05/01 03:20:19;;;;;;;;;;;7.50;95.20;;;;;;4993067;28;19922;-48
2021/05/01 03:22:48;;;;;;;;;;;7.50;95.10;;;;;;4992864;28;19918;-50
2021/05/01 03:25:16;;;;;;;;;;;7.50;95.30;;;;;;4990826;28;19922;-50
2021/05/01 03:27:42;;;;;;;;;;;7.50;95.40;;;;;;4987695;28;19949;-53
2021/05/01 03:30:09;;;;;;;;;;;7.50;95.40;;;;;;4995412;28;19918;-51
2021/05/01 03:32:36;;;;;;;;;;;7.50;95.60;;;;;;4997536;28;19945;-50
2021/05/01 03:35:02;;;;;;;;;;;7.60;95.40;;;;;;4995772;28;20374;-52
2021/05/01 03:37:27;;;;;;;;;;;7.60;95.40;;;;;;4996191;28;19965;-51
2021/05/01 03:39:53;;;;;;;;;;;7.60;94.80;;;;;;4996833;28;19971;-49
2021/05/01 03:42:19;;;;;;;;;;;7.60;95.10;;;;;;4977724;28;19925;-51
2021/05/01 03:44:45;;;;;;;;;;;7.60;95.30;;;;;;4993308;28;19971;-50
2021/05/01 03:47:11;;;;;;;;;;;7.60;95.00;;;;;;4990490;28;19925;-51
2021/05/01 03:49:36;;;;;;;;;;;7.60;95.00;;;;;;4989436;28;19918;-51
2021/05/01 03:52:03;;;;;;;;;;;7.60;94.80;;;;;;4987097;28;19960;-50
2021/05/01 03:54:29;;;;;;;;;;;7.60;95.10;;;;;;4991834;28;19922;-50
2021/05/01 03:56:55;;;;;;;;;;;7.60;94.80;;;;;;5033178;28;20007;-52
2021/05/01 03:59:24;;;;;;;;;;;7.60;94.90;;;;;;4993079;28;19921;-50
2021/05/01 04:01:50;;;;;;;;;;;7.50;94.90;;;;;;4993603;28;19948;-51
2021/05/01 04:04:18;;;;;;;;;;;7.60;95.10;;;;;;4993177;28;19922;-50
2021/05/01 04:06:44;;;;;;;;;;;7.50;95.00;;;;;;5019455;28;19917;-50
2021/05/01 04:09:09;;;;;;;;;;;7.50;95.00;;;;;;5024546;28;20274;-49
2021/05/01 04:11:35;;;;;;;;;;;7.50;94.80;;;;;;4993904;28;20004;-52
2021/05/01 04:14:02;;;;;;;;;;;7.50;95.00;;;;;;5001704;28;20395;-52
2021/05/01 04:16:31;;;;;;;;;;;7.50;95.00;;;;;;4982489;28;20356;-52
2021/05/01 04:18:57;;;;;;;;;;;7.50;95.10;;;;;;4972888;28;19918;-50
2021/05/01 04:21:23;;;;;;;;;;;7.40;95.20;;;;;;4991753;28;19922;-51
2021/05/01 04:23:49;;;;;;;;;;;7.40;95.20;;;;;;4992464;28;19918;-52
2021/05/01 04:26:19;;;;;;;;;;;7.40;95.20;;;;;;4976827;28;19924;-49
2021/05/01 04:28:46;;;;;;;;;;;7.50;95.30;;;;;;4981607;28;19949;-51
2021/05/01 04:31:11;;;;;;;;;;;7.50;95.10;;;;;;4984872;28;19963;-52
2021/05/01 04:33:37;;;;;;;;;;;7.50;95.10;;;;;;4977029;28;19917;-50
2021/05/01 04:36:03;;;;;;;;;;;7.50;95.20;;;;;;4997506;28;20008;-49
2021/05/01 04:38:29;;;;;;;;;;;7.50;95.20;;;;;;4994017;28;19925;-51
2021/05/01 04:40:56;;;;;;;;;;;7.50;95.20;;;;;;4992580;28;20016;-50
2021/05/01 04:43:24;;;;;;;;;;;7.50;95.30;;;;;;4991380;28;20304;-52
2021/05/01 04:45:50;;;;;;;;;;;7.50;95.20;;;;;;4982923;28;19940;-49
2021/05/01 04:48:16;;;;;;;;;;;7.50;95.00;;;;;;4994660;28;19917;-50
2021/05/01 04:50:43;;;;;;;;;;;7.50;95.20;;;;;;4995125;28;19917;-49
2021/05/01 04:53:09;;;;;;;;;;;7.60;95.30;;;;;;4981816;28;19918;-50
2021/05/01 04:55:34;;;;;;;;;;;7.60;95.30;;;;;;4988773;28;19929;-50
2021/05/01 04:58:00;;;;;;;;;;;7.60;95.30;;;;;;4985522;28;19921;-52
2021/05/01 05:00:26;;;;;;;;;;;7.60;95.40;;;;;;4995350;28;20394;-50
2021/05/01 05:02:51;;;;;;;;;;;7.60;95.50;;;;;;4994324;28;19995;-50
2021/05/01 05:05:18;;;;;;;;;;;7.60;95.50;;;;;;4993130;28;19922;-50
2021/05/01 05:07:44;;;;;;;;;;;7.70;95.50;;;;;;4988621;28;20022;-51
2021/05/01 05:10:11;;;;;;;;;;;7.70;95.40;;;;;;4985278;28;19996;-51
2021/05/01 05:12:37;;;;;;;;;;;7.70;95.10;;;;;;5009119;28;20026;-49
2021/05/01 05:15:03;;;;;;;;;;;7.70;95.30;;;;;;5037952;28;20445;-50
2021/05/01 05:17:29;;;;;;;;;;;7.70;95.10;;;;;;4993314;28;19951;-52
2021/05/01 05:19:54;;;;;;;;;;;7.70;95.20;;;;;;4994847;28;20004;-52
2021/05/01 05:22:22;;;;;;;;;;;7.80;95.20;;;;;;4991640;28;19921;-50
2021/05/01 05:24:47;;;;;;;;;;;7.80;95.10;;;;;;5005581;28;19927;-53
2021/05/01 05:27:15;;;;;;;;;;;7.80;95.20;;;;;;5028348;28;19922;-54
2021/05/01 05:29:48;;;;;;;;;;;7.80;95.10;;;;;;4979537;28;20382;-52
2021/05/01 05:32:14;;;;;;;;;;;7.80;95.10;;;;;;4991994;28;19953;-54
2021/05/01 05:34:40;;;;;;;;;;;7.90;95.10;;;;;;4983640;28;19956;-53
2021/05/01 05:37:06;;;;;;;;;;;7.90;95.10;;;;;;5064890;28;20381;-50
2021/05/01 05:39:34;;;;;;;;;;;7.90;94.90;;;;;;5013708;28;19917;-51
2021/05/01 05:42:00;;;;;;;;;;;7.90;95.10;;;;;;4992690;28;19949;-50
2021/05/01 05:44:28;;;;;;;;;;;8.00;95.30;;;;;;5038732;28;20396;-53
2021/05/01 05:46:55;;;;;;;;;;;8.00;95.30;;;;;;4994448;28;19922;-51
2021/05/01 05:49:27;;;;;;;;;;;8.10;95.30;;;;;;4993304;28;19918;-50
2021/05/01 05:51:53;;;;;;;;;;;8.10;95.30;;;;;;4995367;28;19929;-52
2021/05/01 05:54:19;;;;;;;;;;;8.10;94.80;;;;;;4982068;28;19925;-52
2021/05/01 05:56:45;;;;;;;;;;;8.10;94.50;;;;;;4988878;28;20488;-49
2021/05/01 05:59:10;;;;;;;;;;;8.20;94.90;;;;;;4993504;28;19984;-52
2021/05/01 06:01:40;;;;;;;;;;;8.20;94.90;;;;;;4993364;28;19918;-52
2021/05/01 06:04:12;;;;;;;;;;;8.20;94.90;;;;;;4991781;28;20366;-52
2021/05/01 06:06:42;;;;;;;;;;;8.20;95.10;;;;;;4994547;28;19918;-52
2021/05/01 06:09:08;;;;;;;;;;;8.20;95.20;;;;;;4993092;28;20008;-51
2021/05/01 06:11:34;;;;;;;;;;;8.20;94.90;;;;;;4993372;28;19964;-50
2021/05/01 06:14:04;;;;;;;;;;;8.30;94.90;;;;;;4976400;28;19917;-51
2021/05/01 06:16:37;;;;;;;;;;;8.30;94.90;;;;;;4993746;28;19926;-52
2021/05/01 06:19:11;;;;;;;;;;;8.30;94.50;;;;;;4976608;28;19940;-50
2021/05/01 06:21:38;;;;;;;;;;;8.30;94.30;;;;;;4993226;28;19918;-50
2021/05/01 06:24:05;;;;;;;;;;;8.30;94.50;;;;;;4993847;28;19967;-54
2021/05/01 06:26:30;;;;;;;;;;;8.30;94.60;;;;;;5006780;28;19964;-52
2021/05/01 06:28:56;;;;;;;;;;;8.40;94.50;;;;;;4991303;28;19917;-52
2021/05/01 06:31:23;;;;;;;;;;;8.40;94.40;;;;;;4987006;28;19918;-50
2021/05/01 06:33:49;;;;;;;;;;;8.40;94.40;;;;;;5006039;28;19964;-53
2021/05/01 06:36:15;;;;;;;;;;;8.50;94.60;;;;;;4994972;28;20374;-52
2021/05/01 06:38:41;;;;;;;;;;;8.60;94.60;;;;;;4992683;28;19933;-50
2021/05/01 06:41:08;;;;;;;;;;;8.70;94.30;;;;;;4989610;28;20035;-51
2021/05/01 06:43:42;;;;;;;;;;;8.90;94.00;;;;;;5005158;28;19922;-53
2021/05/01 06:46:08;;;;;;;;;;;9.00;93.80;;;;;;4997822;28;19922;-52
2021/05/01 06:48:34;;;;;;;;;;;9.10;93.80;;;;;;4990123;28;20328;-54
2021/05/01 06:51:01;;;;;;;;;;;9.20;93.20;;;;;;4989498;28;20012;-51
2021/05/01 06:53:30;;;;;;;;;;;9.20;92.80;;;;;;4992369;28;20013;-54
2021/05/01 06:56:00;;;;;;;;;;;9.20;92.70;;;;;;4988207;28;19926;-50
2021/05/01 06:58:27;;;;;;;;;;;9.10;92.60;;;;;;4987542;28;19961;-54
2021/05/01 07:00:53;;;;;;;;;;;9.10;92.80;;;;;;4992690;28;19918;-52
2021/05/01 07:03:20;;;;;;;;;;;9.10;92.60;;;;;;4978203;28;19922;-52
2021/05/01 07:05:47;;;;;;;;;;;9.20;92.20;;;;;;4988400;28;20004;-49
2021/05/01 07:08:15;;;;;;;;;;;9.20;92.30;;;;;;4983493;28;19956;-54
2021/05/01 07:10:45;;;;;;;;;;;9.30;92.40;;;;;;4991643;28;20009;-53
2021/05/01 07:13:12;;;;;;;;;;;9.30;91.60;;;;;;4992238;28;20435;-54
2021/05/01 07:15:39;;;;;;;;;;;9.30;91.20;;;;;;4992028;28;20458;-54
2021/05/01 07:18:05;;;;;;;;;;;9.30;91.40;;;;;;4989455;28;19929;-54
2021/05/01 07:20:30;;;;;;;;;;;9.40;92.20;;;;;;4989523;28;19921;-53
2021/05/01 07:22:59;;;;;;;;;;;9.50;91.70;;;;;;4983915;28;20445;-54
2021/05/01 07:25:28;;;;;;;;;;;9.40;90.50;;;;;;4971158;28;19922;-53
2021/05/01 07:27:56;;;;;;;;;;;9.30;90.00;;;;;;4987646;28;19926;-50
2021/05/01 07:30:23;;;;;;;;;;;9.30;89.70;;;;;;4990596;28;19918;-52
2021/05/01 07:32:49;;;;;;;;;;;9.30;89.90;;;;;;4992058;28;20297;-50
2021/05/01 07:35:16;;;;;;;;;;;9.30;90.40;;;;;;4993384;28;19918;-51
2021/05/01 07:37:43;;;;;;;;;;;9.50;90.60;;;;;;4991157;28;19930;-51
2021/05/01 07:40:11;;;;;;;;;;;9.60;90.50;;;;;;4991717;28;19925;-53
2021/05/01 07:42:38;;;;;;;;;;;9.60;88.40;;;;;;4987803;28;19918;-54
2021/05/01 07:45:04;;;;;;;;;;;9.80;88.70;;;;;;4992294;28;20001;-54
2021/05/01 07:47:30;;;;;;;;;;;9.90;89.90;;;;;;4990653;28;20377;-54
2021/05/01 07:49:58;;;;;;;;;;;10.10;89.30;;;;;;5001989;28;19916;-54
2021/05/01 07:52:31;;;;;;;;;;;10.20;87.80;;;;;;4989672;28;20384;-54
2021/05/01 07:54:57;;;;;;;;;;;10.30;85.00;;;;;;4991750;28;19927;-54
2021/05/01 07:57:23;;;;;;;;;;;10.30;83.60;;;;;;4982469;28;19968;-52
2021/05/01 07:59:49;;;;;;;;;;;10.30;85.50;;;;;;4967079;28;19924;-53
2021/05/01 08:02:16;;;;;;;;;;;10.20;84.80;;;;;;4991680;28;19921;-55
2021/05/01 08:04:42;;;;;;;;;;;10.20;83.50;;;;;;4990692;28;20367;-50
2021/05/01 08:07:07;;;;;;;;;;;10.20;80.50;;;;;;4989201;28;19924;-52
2021/05/01 08:09:35;;;;;;;;;;;10.10;79.30;;;;;;4988422;28;19972;-53
2021/05/01 08:12:01;;;;;;;;;;;10.10;81.90;;;;;;4987436;28;19918;-50
2021/05/01 08:14:27;;;;;;;;;;;10.20;82.50;;;;;;4976943;28;19928;-52
2021/05/01 08:16:52;;;;;;;;;;;10.20;82.50;;;;;;4989373;28;19929;-55
2021/05/01 08:19:18;;;;;;;;;;;10.40;84.50;;;;;;5029878;28;19922;-54
2021/05/01 08:21:47;;;;;;;;;;;10.50;82.00;;;;;;4971860;28;19957;-52
2021/05/01 08:24:13;;;;;;;;;;;10.50;80.40;;;;;;4988954;28;20012;-52
2021/05/01 08:26:40;;;;;;;;;;;10.40;79.00;;;;;;4988846;28;19922;-54
2021/05/01 08:29:05;;;;;;;;;;;10.40;81.10;;;;;;4995191;28;20009;-54
2021/05/01 08:31:36;;;;;;;;;;;10.30;78.50;;;;;;4993482;28;19917;-52
2021/05/01 08:34:02;;;;;;;;;;;10.20;78.30;;;;;;4989101;28;19917;-54
2021/05/01 08:36:28;;;;;;;;;;;10.10;76.90;;;;;;4996150;28;20610;-53
2021/05/01 08:38:53;;;;;;;;;;;10.00;78.00;;;;;;5011380;28;19922;-54
2021/05/01 08:41:20;;;;;;;;;;;9.90;78.00;;;;;;5000159;28;19974;-55
2021/05/01 08:43:45;;;;;;;;;;;9.90;79.40;;;;;;4987019;28;19918;-54
2021/05/01 08:46:14;;;;;;;;;;;9.90;79.50;;;;;;4987920;28;19924;-53
2021/05/01 08:48:47;;;;;;;;;;;9.80;79.90;;;;;;4987827;28;19970;-54
2021/05/01 08:51:14;;;;;;;;;;;9.90;79.90;;;;;;4991812;28;19918;-53
2021/05/01 08:53:40;;;;;;;;;;;10.10;78.60;;;;;;4991435;28;19922;-54
2021/05/01 08:56:05;;;;;;;;;;;10.30;77.70;;;;;;4992059;28;19924;-54
2021/05/01 08:58:35;;;;;;;;;;;10.40;76.40;;;;;;4991246;28;19929;-54
2021/05/01 09:01:01;;;;;;;;;;;10.50;76.90;;;;;;4974889;28;19917;-54
2021/05/01 09:03:27;;;;;;;;;;;10.60;75.90;;;;;;4989751;28;20012;-54
2021/05/01 09:05:54;;;;;;;;;;;10.80;76.70;;;;;;5018644;28;20034;-53
2021/05/01 09:08:22;;;;;;;;;;;10.90;76.40;;;;;;5019417;28;19943;-54
2021/05/01 09:10:49;;;;;;;;;;;11.00;76.70;;;;;;4990135;28;20065;-53
2021/05/01 09:13:15;;;;;;;;;;;10.90;77.20;;;;;;4991648;28;19918;-53
2021/05/01 09:15:53;;;;;;;;;;;10.80;77.60;;;;;;5003191;28;19923;-51
2021/05/01 09:18:19;;;;;;;;;;;10.70;74.80;;;;;;5008850;28;19922;-49
2021/05/01 09:20:44;;;;;;;;;;;10.60;76.40;;;;;;5046909;28;20285;-50
2021/05/01 09:23:10;;;;;;;;;;;10.50;77.20;;;;;;4982548;28;19972;-53
2021/05/01 09:25:49;;;;;;;;;;;10.50;77.20;;;;;;4983985;28;19917;-53
2021/05/01 09:28:17;;;;;;;;;;;10.50;74.70;;;;;;4990382;28;19921;-55
2021/05/01 09:31:01;;;;;;;;;;;10.60;75.20;;;;;;4988572;28;20259;-53
2021/05/01 09:33:31;;;;;;;;;;;10.80;75.60;;;;;;4989707;28;20373;-51
2021/05/01 09:35:59;;;;;;;;;;;11.10;71.60;;;;;;4990293;28;19921;-55
2021/05/01 09:38:29;;;;;;;;;;;11.30;72.70;;;;;;4992019;28;19918;-55
2021/05/01 09:40:55;;;;;;;;;;;11.50;71.80;;;;;;4993052;28;19967;-53
2021/05/01 09:43:20;;;;;;;;;;;11.50;71.30;;;;;;4989134;28;20407;-55
2021/05/01 09:45:46;;;;;;;;;;;11.40;71.50;;;;;;4992422;28;19925;-55
2021/05/01 09:48:13;;;;;;;;;;;11.50;72.10;;;;;;4988396;28;20440;-55
2021/05/01 09:50:39;;;;;;;;;;;11.50;71.00;;;;;;4990807;28;19928;-53
2021/05/01 09:53:08;;;;;;;;;;;11.50;72.40;;;;;;4989689;28;19944;-52
2021/05/01 09:55:48;;;;;;;;;;;11.70;71.20;;;;;;4990540;28;19967;-50
2021/05/01 09:58:13;;;;;;;;;;;11.70;70.40;;;;;;4977053;28;19922;-54
2021/05/01 10:00:39;;;;;;;;;;;11.80;72.30;;;;;;4983379;28;20354;-52
2021/05/01 10:03:25;;;;;;;;;;;11.80;69.60;;;;;;4982237;28;19971;-53
2021/05/01 10:05:52;;;;;;;;;;;11.70;69.40;;;;;;4992873;28;19917;-55
2021/05/01 10:08:20;;;;;;;;;;;11.90;70.60;;;;;;4991274;28;19990;-52
2021/05/01 10:10:46;;;;;;;;;;;11.90;69.90;;;;;;4985690;28;20389;-55
2021/05/01 10:13:12;;;;;;;;;;;11.70;68.40;;;;;;4980563;28;19922;-53
2021/05/01 10:15:38;;;;;;;;;;;11.50;68.10;;;;;;4991166;28;20304;-52
2021/05/01 10:18:08;;;;;;;;;;;11.40;68.00;;;;;;4985619;28;19922;-55
2021/05/01 10:20:38;;;;;;;;;;;11.50;69.60;;;;;;4984698;28;19928;-55
2021/05/01 10:23:05;;;;;;;;;;;11.70;67.10;;;;;;4989693;28;19922;-54
2021/05/01 10:25:32;;;;;;;;;;;11.90;67.90;;;;;;4989588;28;19922;-54
2021/05/01 10:28:01;;;;;;;;;;;11.90;67.50;;;;;;4981353;28;19928;-54
2021/05/01 10:30:59;;;;;;;;;;;11.90;69.40;;;;;;4985610;28;20385;-54
2021/05/01 10:33:30;;;;;;;;;;;12.00;66.90;;;;;;4985257;28;19918;-52
2021/05/01 10:35:56;;;;;;;;;;;12.20;67.70;;;;;;4984180;28;19929;-54
2021/05/01 10:38:23;;;;;;;;;;;12.30;65.60;;;;;;4989893;28;20346;-54
2021/05/01 10:40:50;;;;;;;;;;;12.30;66.80;;;;;;4989141;28;19917;-53
2021/05/01 10:43:20;;;;;;;;;;;12.20;65.70;;;;;;4990647;28;19963;-51
2021/05/01 10:45:47;;;;;;;;;;;12.00;66.20;;;;;;4988976;28;19917;-54
2021/05/01 10:48:14;;;;;;;;;;;11.90;67.00;;;;;;4988953;28;19928;-50
2021/05/01 10:50:40;;;;;;;;;;;11.70;68.20;;;;;;4988645;28;20431;-54
2021/05/01 10:53:06;;;;;;;;;;;11.50;69.60;;;;;;5004952;28;19922;-53
2021/05/01 10:55:49;;;;;;;;;;;11.30;70.30;;;;;;4991739;28;19918;-55
2021/05/01 10:58:38;;;;;;;;;;;11.20;69.30;;;;;;4989231;28;20365;-55
2021/05/01 11:01:05;;;;;;;;;;;11.10;70.90;;;;;;4988134;28;19924;-55
2021/05/01 11:03:31;;;;;;;;;;;11.00;71.00;;;;;;4988896;28;19953;-50
2021/05/01 11:05:59;;;;;;;;;;;11.00;70.40;;;;;;4986325;28;19925;-52
2021/05/01 11:08:30;;;;;;;;;;;11.10;69.00;;;;;;4976862;28;19949;-52
2021/05/01 11:10:56;;;;;;;;;;;11.20;66.60;;;;;;4987489;28;19963;-50
2021/05/01 11:13:30;;;;;;;;;;;11.20;67.00;;;;;;4981056;28;19959;-50
2021/05/01 11:16:00;;;;;;;;;;;11.20;69.40;;;;;;4982469;28;19918;-54
2021/05/01 11:18:26;;;;;;;;;;;11.40;68.10;;;;;;4985329;28;20409;-55
2021/05/01 11:20:56;;;;;;;;;;;11.80;69.30;;;;;;4988291;28;19918;-52
2021/05/01 11:23:25;;;;;;;;;;;12.00;65.80;;;;;;4988010;28;19964;-54
2021/05/01 11:25:54;;;;;;;;;;;12.20;65.30;;;;;;4990446;28;19956;-54
2021/05/01 11:28:22;;;;;;;;;;;12.50;67.10;;;;;;5013042;28;19926;-51
2021/05/01 11:30:49;;;;;;;;;;;12.80;65.10;;;;;;5011935;28;20388;-52
2021/05/01 11:33:20;;;;;;;;;;;13.10;65.50;;;;;;4971825;28;19918;-51
2021/05/01 11:35:49;;;;;;;;;;;13.20;64.90;;;;;;4964152;28;20290;-54
2021/05/01 11:38:25;;;;;;;;;;;13.30;64.70;;;;;;4979375;28;19929;-53
2021/05/01 11:40:55;;;;;;;;;;;13.20;64.00;;;;;;4988965;28;19918;-55
2021/05/01 11:43:25;;;;;;;;;;;13.40;65.30;;;;;;4981733;28;19924;-55
2021/05/01 11:46:10;;;;;;;;;;;13.40;63.60;;;;;;4988817;28;19922;-55
2021/05/01 11:48:42;;;;;;;;;;;13.50;63.40;;;;;;4987727;28;19952;-54
2021/05/01 11:51:10;;;;;;;;;;;13.50;61.30;;;;;;4988258;28;19925;-51
2021/05/01 11:53:40;;;;;;;;;;;13.70;59.40;;;;;;4976079;28;20032;-55
2021/05/01 11:56:07;;;;;;;;;;;13.80;61.40;;;;;;4988490;28;20016;-54
2021/05/01 11:58:34;;;;;;;;;;;13.90;60.00;;;;;;4977212;28;20021;-50
2021/05/01 12:01:12;;;;;;;;;;;13.90;59.00;;;;;;4974056;28;20460;-55
2021/05/01 12:03:39;;;;;;;;;;;13.80;54.90;;;;;;4990096;28;19921;-50
2021/05/01 12:06:07;;;;;;;;;;;13.70;54.40;;;;;;5002217;28;19917;-51
2021/05/01 12:08:33;;;;;;;;;;;13.70;55.50;;;;;;4951298;28;19968;-54
2021/05/01 12:11:03;;;;;;;;;;;13.60;52.50;;;;;;4988522;28;19922;-53
2021/05/01 12:13:36;;;;;;;;;;;13.50;53.40;;;;;;4988803;28;19917;-50
2021/05/01 12:16:05;;;;;;;;;;;13.50;53.50;;;;;;4986108;28;20016;-54
2021/05/01 12:18:42;;;;;;;;;;;13.50;56.40;;;;;;5007175;28;20464;-53
2021/05/01 12:21:14;;;;;;;;;;;13.50;57.50;;;;;;5005967;28;19922;-51
2021/05/01 12:23:50;;;;;;;;;;;13.60;54.30;;;;;;4989659;28;19922;-55
2021/05/01 12:26:35;;;;;;;;;;;13.60;51.40;;;;;;4987407;28;19918;-54
2021/05/01 12:29:23;;;;;;;;;;;13.70;53.80;;;;;;4983775;28;19918;-54
2021/05/01 12:32:05;;;;;;;;;;;13.70;54.10;;;;;;4991425;28;19971;-51
2021/05/01 12:34:45;;;;;;;;;;;13.70;54.00;;;;;;4992185;28;19918;-54
2021/05/01 12:37:12;;;;;;;;;;;13.70;56.90;;;;;;5007126;28;19924;-52
2021/05/01 12:39:39;;;;;;;;;;;13.70;55.80;;;;;;5007710;28;20012;-56
2021/05/01 12:42:28;;;;;;;;;;;13.60;55.40;;;;;;4982272;28;19928;-53
2021/05/01 12:44:54;;;;;;;;;;;13.70;55.80;;;;;;4989238;28;20251;-55
2021/05/01 12:47:39;;;;;;;;;;;13.80;57.20;;;;;;4978234;28;19918;-51
2021/05/01 12:50:28;;;;;;;;;;;13.90;57.40;;;;;;4992510;28;20331;-55
2021/05/01 12:53:15;;;;;;;;;;;13.90;57.30;;;;;;4979218;28;20392;-53
2021/05/01 12:56:11;;;;;;;;;;;14.00;57.30;;;;;;4992513;28;19963;-53
2021/05/01 12:58:39;;;;;;;;;;;14.00;57.50;;;;;;4962408;28;19921;-51
2021/05/01 13:01:24;;;;;;;;;;;14.00;55.80;;;;;;4990728;28;20008;-53
2021/05/01 13:04:09;;;;;;;;;;;14.00;54.60;;;;;;4991584;28;20299;-54
2021/05/01 13:06:35;;;;;;;;;;;13.80;56.60;;;;;;4978853;28;19925;-54
2021/05/01 13:09:01;;;;;;;;;;;13.70;59.60;;;;;;4990386;28;20263;-55
2021/05/01 13:11:30;;;;;;;;;;;13.80;59.10;;;;;;5044344;28;19970;-56
2021/05/01 13:14:14;;;;;;;;;;;13.80;60.80;;;;;;5039224;28;19916;-52
2021/05/01 13:16:58;;;;;;;;;;;13.80;58.40;;;;;;5038622;28;19968;-54
2021/05/01 13:19:27;;;;;;;;;;;13.90;60.00;;;;;;4986616;28;19928;-54
2021/05/01 13:21:57;;;;;;;;;;;13.90;59.30;;;;;;4991346;28;19971;-54
2021/05/01 13:24:26;;;;;;;;;;;14.00;58.60;;;;;;4990693;28;19917;-54
2021/05/01 13:26:52;;;;;;;;;;;14.00;57.80;;;;;;5002548;28;19956;-50
2021/05/01 13:29:22;;;;;;;;;;;13.70;57.50;;;;;;5007103;28;19944;-50
2021/05/01 13:31:48;;;;;;;;;;;13.40;57.80;;;;;;4990662;28;20016;-49
2021/05/01 13:34:20;;;;;;;;;;;13.10;59.70;;;;;;4991288;28;19921;-51
2021/05/01 13:36:45;;;;;;;;;;;13.10;62.00;;;;;;4989842;28;20293;-50
2021/05/01 13:39:16;;;;;;;;;;;13.20;60.90;;;;;;4992049;28;20393;-51
2021/05/01 13:41:42;;;;;;;;;;;13.10;61.70;;;;;;4989189;28;19936;-49
2021/05/01 13:44:07;;;;;;;;;;;12.90;63.00;;;;;;4997554;28;20370;-51
2021/05/01 13:46:42;;;;;;;;;;;12.70;64.90;;;;;;4984653;28;20077;-54
2021/05/01 13:49:08;;;;;;;;;;;12.50;65.10;;;;;;4989651;28;19918;-50
2021/05/01 13:51:34;;;;;;;;;;;12.40;66.10;;;;;;4978923;28;19921;-52
2021/05/01 13:54:06;;;;;;;;;;;12.20;68.00;;;;;;4978662;28;19918;-53
2021/05/01 13:56:32;;;;;;;;;;;12.10;66.20;;;;;;4989137;28;19922;-54
2021/05/01 13:58:58;;;;;;;;;;;12.10;68.00;;;;;;4991066;28;19944;-53
2021/05/01 14:01:23;;;;;;;;;;;12.00;67.70;;;;;;4981020;28;20471;-53
2021/05/01 14:03:49;;;;;;;;;;;12.00;67.70;;;;;;4989284;28;19925;-54
2021/05/01 14:06:15;;;;;;;;;;;12.00;68.20;;;;;;4986083;28;19925;-53
2021/05/01 14:08:43;;;;;;;;;;;12.00;67.70;;;;;;4989915;28;19924;-52
2021/05/01 14:11:09;;;;;;;;;;;12.00;68.40;;;;;;4990164;28;20296;-50
2021/05/01 14:13:36;;;;;;;;;;;11.90;67.00;;;;;;4988626;28;20301;-52
2021/05/01 14:16:15;;;;;;;;;;;11.90;66.80;;;;;;4990625;28;19924;-54
2021/05/01 14:18:41;;;;;;;;;;;11.80;67.30;;;;;;4980174;28;19918;-53
2021/05/01 14:21:10;;;;;;;;;;;11.70;67.00;;;;;;4990542;28;19917;-51
2021/05/01 14:23:36;;;;;;;;;;;11.60;68.30;;;;;;4993812;28;20040;-54
2021/05/01 14:26:05;;;;;;;;;;;11.60;69.60;;;;;;4989305;28;19921;-54
2021/05/01 14:28:34;;;;;;;;;;;11.50;69.80;;;;;;4972322;28;19918;-53
2021/05/01 14:33:25;;;;;;;;;;;11.40;67.00;;;;;;4989041;28;19921;-54